sensor_id;sensor_type;location;lat;lon;timestamp;temperature;humidity
24632;DHT22;59977;48.782;9.190;2023-03-01T00:02:20;2.40;99.90
24632;DHT22;59977;48.782;9.190;2023-03-01T00:04:46;2.40;99.90
24632;DHT22;59977;48.782;9.190;2023-03-01T00:07:12;2.40;99.90
24632;DHT22;59977;48.782;9.190;2023-03-01T00:09:38;2.40;99.90
24632;DHT22;59977;48.782;9.190;2023-03-01T00:12:05;2.40;99.90
24632;DHT22;59977;48.782;9.190;2023-03-01T00:14:31;3.70;99.90
24632;DHT22;59977;48.782;9.190;2023-03-01T00:16:56;2.40;99.90
24632;DHT22;59977;48.782;9.190;2023-03-01T00:19:22;2.40;99.90
24632;DHT22;59977;48.782;9.190;2023-03-01T00:21:48;2.40;99.90
24632;DHT22;59977;48.782;9.190;2023-03-01T00:24:14;2.30;99.90
24632;DHT22;59977;48.782;9.190;2023-03-01T00:26:40;2.20;99.90
24632;DHT22;59977;48.782;9.190;2023-03-01T00:29:06;2.60;99.90
24632;DHT22;59977;48.782;9.190;2023-03-01T00:31:32;2.00;99.90
24632;DHT22;59977;48.782;9.190;2023-03-01T00:34:04;2.00;99.90
24632;DHT22;59977;48.782;9.190;2023-03-01T00:36:34;1.90;99.90
24632;DHT22;59977;48.782;9.190;2023-03-01T00:39:00;1.90;99.90
24632;DHT22;59977;48.782;9.190;2023-03-01T00:41:26;1.80;99.90
24632;DHT22;59977;48.782;9.190;2023-03-01T00:43:52;1.90;99.90
24632;DHT22;59977;48.782;9.190;2023-03-01T00:46:21;1.90;99.90
24632;DHT22;59977;48.782;9.190;2023-03-01T00:48:47;1.90;99.90
24632;DHT22;59977;48.782;9.190;2023-03-01T00:51:16;2.00;99.90
24632;DHT22;59977;48.782;9.190;2023-03-01T00:53:42;2.00;99.90
24632;DHT22;59977;48.782;9.190;2023-03-01T00:56:10;2.00;99.90
24632;DHT22;59977;48.782;9.190;2023-03-01T00:58:36;2.10;99.90
24632;DHT22;59977;48.782;9.190;2023-03-01T01:01:08;2.20;99.90
24632;DHT22;59977;48.782;9.190;2023-03-01T01:03:43;2.20;99.90
24632;DHT22;59977;48.782;9.190;2023-03-01T01:06:20;2.20;99.90
24632;DHT22;59977;48.782;9.190;2023-03-01T01:08:46;2.20;99.90
24632;DHT22;59977;48.782;9.190;2023-03-01T01:11:12;2.20;99.90
24632;DHT22;59977;48.782;9.190;2023-03-01T01:13:38;2.20;99.90
24632;DHT22;59977;48.782;9.190;2023-03-01T01:16:05;4.30;99.90
24632;DHT22;59977;48.782;9.190;2023-03-01T01:18:30;2.20;99.90
24632;DHT22;59977;48.782;9.190;2023-03-01T01:20:56;2.10;99.90
24632;DHT22;59977;48.782;9.190;2023-03-01T01:23:22;2.10;99.90
24632;DHT22;59977;48.782;9.190;2023-03-01T01:25:47;1.30;99.90
24632;DHT22;59977;48.782;9.190;2023-03-01T01:28:13;2.00;99.90
24632;DHT22;59977;48.782;9.190;2023-03-01T01:30:38;1.90;99.90
24632;DHT22;59977;48.782;9.190;2023-03-01T01:33:04;1.90;99.90
24632;DHT22;59977;48.782;9.190;2023-03-01T01:35:29;1.80;99.90
24632;DHT22;59977;48.782;9.190;2023-03-01T01:37:55;1.80;99.90
24632;DHT22;59977;48.782;9.190;2023-03-01T01:40:20;1.70;99.90
24632;DHT22;59977;48.782;9.190;2023-03-01T01:42:46;1.70;99.90
24632;DHT22;59977;48.782;9.190;2023-03-01T01:47:57;1.60;99.90
24632;DHT22;59977;48.782;9.190;2023-03-01T01:50:24;1.70;99.90
24632;DHT22;59977;48.782;9.190;2023-03-01T01:52:51;0.40;99.90
24632;DHT22;59977;48.782;9.190;2023-03-01T01:55:21;1.70;99.90
24632;DHT22;59977;48.782;9.190;2023-03-01T01:57:53;1.70;99.90
24632;DHT22;59977;48.782;9.190;2023-03-01T02:00:23;1.80;99.90
24632;DHT22;59977;48.782;9.190;2023-03-01T02:02:51;1.80;99.90
24632;DHT22;59977;48.782;9.190;2023-03-01T02:08:04;1.90;99.90
24632;DHT22;59977;48.782;9.190;2023-03-01T02:10:32;2.00;99.90
24632;DHT22;59977;48.782;9.190;2023-03-01T02:12:58;2.10;99.90
24632;DHT22;59977;48.782;9.190;2023-03-01T02:15:25;2.10;99.90
24632;DHT22;59977;48.782;9.190;2023-03-01T02:17:52;2.10;99.90
24632;DHT22;59977;48.782;9.190;2023-03-01T02:22:56;2.10;99.90
24632;DHT22;59977;48.782;9.190;2023-03-01T02:25:43;2.10;99.90
24632;DHT22;59977;48.782;9.190;2023-03-01T02:30:37;2.00;99.90
24632;DHT22;59977;48.782;9.190;2023-03-01T02:33:04;2.00;99.90
24632;DHT22;59977;48.782;9.190;2023-03-01T02:35:35;1.90;99.90
24632;DHT22;59977;48.782;9.190;2023-03-01T02:38:03;1.90;99.90
24632;DHT22;59977;48.782;9.190;2023-03-01T02:40:33;2.00;99.90
24632;DHT22;59977;48.782;9.190;2023-03-01T02:42:59;2.00;99.90
24632;DHT22;59977;48.782;9.190;2023-03-01T02:45:26;2.00;99.90
24632;DHT22;59977;48.782;9.190;2023-03-01T02:47:56;1.90;99.90
24632;DHT22;59977;48.782;9.190;2023-03-01T02:50:37;1.90;99.90
24632;DHT22;59977;48.782;9.190;2023-03-01T02:53:39;2.00;99.90
24632;DHT22;59977;48.782;9.190;2023-03-01T02:56:06;2.20;99.90
24632;DHT22;59977;48.782;9.190;2023-03-01T02:58:39;2.20;99.90
24632;DHT22;59977;48.782;9.190;2023-03-01T03:01:11;2.20;99.90
24632;DHT22;59977;48.782;9.190;2023-03-01T03:03:38;2.20;99.90
24632;DHT22;59977;48.782;9.190;2023-03-01T03:06:04;2.20;99.90
24632;DHT22;59977;48.782;9.190;2023-03-01T03:08:30;2.20;99.90
24632;DHT22;59977;48.782;9.190;2023-03-01T03:10:55;2.20;99.90
24632;DHT22;59977;48.782;9.190;2023-03-01T03:13:21;2.20;99.90
24632;DHT22;59977;48.782;9.190;2023-03-01T03:15:47;2.20;99.90
24632;DHT22;59977;48.782;9.190;2023-03-01T03:18:15;2.20;99.90
24632;DHT22;59977;48.782;9.190;2023-03-01T03:20:42;2.10;99.90
24632;DHT22;59977;48.782;9.190;2023-03-01T03:23:09;2.00;99.90
24632;DHT22;59977;48.782;9.190;2023-03-01T03:25:34;2.00;99.90
24632;DHT22;59977;48.782;9.190;2023-03-01T03:28:04;2.10;99.90
24632;DHT22;59977;48.782;9.190;2023-03-01T03:30:36;2.10;99.90
24632;DHT22;59977;48.782;9.190;2023-03-01T03:33:02;2.10;99.90
24632;DHT22;59977;48.782;9.190;2023-03-01T03:35:37;2.20;99.90
24632;DHT22;59977;48.782;9.190;2023-03-01T03:38:07;2.20;99.90
24632;DHT22;59977;48.782;9.190;2023-03-01T03:40:42;2.20;99.90
24632;DHT22;59977;48.782;9.190;2023-03-01T03:43:11;2.20;99.90
24632;DHT22;59977;48.782;9.190;2023-03-01T03:45:37;2.10;99.90
24632;DHT22;59977;48.782;9.190;2023-03-01T03:48:05;2.10;99.90
24632;DHT22;59977;48.782;9.190;2023-03-01T03:50:31;2.10;99.90
24632;DHT22;59977;48.782;9.190;2023-03-01T03:52:57;2.10;99.90
24632;DHT22;59977;48.782;9.190;2023-03-01T03:55:23;2.00;99.90
24632;DHT22;59977;48.782;9.190;2023-03-01T03:57:53;2.10;99.90
24632;DHT22;59977;48.782;9.190;2023-03-01T04:00:21;2.20;99.90
24632;DHT22;59977;48.782;9.190;2023-03-01T04:02:50;2.40;99.90
24632;DHT22;59977;48.782;9.190;2023-03-01T04:05:17;2.40;99.90
24632;DHT22;59977;48.782;9.190;2023-03-01T04:07:45;2.90;99.90
24632;DHT22;59977;48.782;9.190;2023-03-01T04:10:14;2.30;99.90
24632;DHT22;59977;48.782;9.190;2023-03-01T04:12:40;2.30;99.90
24632;DHT22;59977;48.782;9.190;2023-03-01T04:15:07;2.40;99.90
24632;DHT22;59977;48.782;9.190;2023-03-01T04:20:05;2.40;99.90
24632;DHT22;59977;48.782;9.190;2023-03-01T04:22:32;2.40;99.90
24632;DHT22;59977;48.782;9.190;2023-03-01T04:24:58;2.40;99.90
24632;DHT22;59977;48.782;9.190;2023-03-01T04:27:27;2.30;99.90
24632;DHT22;59977;48.782;9.190;2023-03-01T04:29:52;2.30;99.90
24632;DHT22;59977;48.782;9.190;2023-03-01T04:32:18;2.40;99.90
24632;DHT22;59977;48.782;9.190;2023-03-01T04:34:44;2.70;99.90
24632;DHT22;59977;48.782;9.190;2023-03-01T04:37:09;2.60;99.90
24632;DHT22;59977;48.782;9.190;2023-03-01T04:39:35;2.60;99.90
24632;DHT22;59977;48.782;9.190;2023-03-01T04:42:14;2.60;99.90
24632;DHT22;59977;48.782;9.190;2023-03-01T04:44:40;2.60;99.90
24632;DHT22;59977;48.782;9.190;2023-03-01T04:47:06;2.60;99.90
24632;DHT22;59977;48.782;9.190;2023-03-01T04:49:31;2.60;99.90
24632;DHT22;59977;48.782;9.190;2023-03-01T04:51:57;2.60;99.90
24632;DHT22;59977;48.782;9.190;2023-03-01T04:54:33;2.50;99.90
24632;DHT22;59977;48.782;9.190;2023-03-01T04:56:59;2.30;99.90
24632;DHT22;59977;48.782;9.190;2023-03-01T04:59:25;2.40;99.90
24632;DHT22;59977;48.782;9.190;2023-03-01T05:01:52;2.50;99.90
24632;DHT22;59977;48.782;9.190;2023-03-01T05:04:21;2.50;99.90
24632;DHT22;59977;48.782;9.190;2023-03-01T05:06:47;2.50;99.90
24632;DHT22;59977;48.782;9.190;2023-03-01T05:09:12;2.50;99.90
24632;DHT22;59977;48.782;9.190;2023-03-01T05:11:38;2.50;99.90
24632;DHT22;59977;48.782;9.190;2023-03-01T05:14:05;2.50;99.90
24632;DHT22;59977;48.782;9.190;2023-03-01T05:16:31;2.50;99.90
24632;DHT22;59977;48.782;9.190;2023-03-01T05:18:58;2.50;99.90
24632;DHT22;59977;48.782;9.190;2023-03-01T05:21:24;2.50;99.90
24632;DHT22;59977;48.782;9.190;2023-03-01T05:23:49;2.40;99.90
24632;DHT22;59977;48.782;9.190;2023-03-01T05:26:16;2.60;99.90
24632;DHT22;59977;48.782;9.190;2023-03-01T05:28:43;2.40;99.90
24632;DHT22;59977;48.782;9.190;2023-03-01T05:31:09;2.40;99.90
24632;DHT22;59977;48.782;9.190;2023-03-01T05:33:41;2.40;99.90
24632;DHT22;59977;48.782;9.190;2023-03-01T05:36:08;2.50;99.90
24632;DHT22;59977;48.782;9.190;2023-03-01T05:38:35;2.50;99.90
24632;DHT22;59977;48.782;9.190;2023-03-01T05:41:01;2.60;99.90
24632;DHT22;59977;48.782;9.190;2023-03-01T05:43:30;2.50;99.90
24632;DHT22;59977;48.782;9.190;2023-03-01T05:45:57;2.50;99.90
24632;DHT22;59977;48.782;9.190;2023-03-01T05:48:23;2.50;99.90
24632;DHT22;59977;48.782;9.190;2023-03-01T05:50:48;2.50;99.90
24632;DHT22;59977;48.782;9.190;2023-03-01T05:53:19;2.50;99.90
24632;DHT22;59977;48.782;9.190;2023-03-01T05:55:46;2.50;99.90
24632;DHT22;59977;48.782;9.190;2023-03-01T05:58:19;2.50;99.90
24632;DHT22;59977;48.782;9.190;2023-03-01T06:00:47;2.40;99.90
24632;DHT22;59977;48.782;9.190;2023-03-01T06:03:15;2.50;99.90
24632;DHT22;59977;48.782;9.190;2023-03-01T06:05:41;2.50;99.90
24632;DHT22;59977;48.782;9.190;2023-03-01T06:08:09;2.50;99.90
24632;DHT22;59977;48.782;9.190;2023-03-01T06:10:35;2.60;99.90
24632;DHT22;59977;48.782;9.190;2023-03-01T06:13:01;2.60;99.90
24632;DHT22;59977;48.782;9.190;2023-03-01T06:15:26;2.70;99.90
24632;DHT22;59977;48.782;9.190;2023-03-01T06:17:54;2.70;99.90
24632;DHT22;59977;48.782;9.190;2023-03-01T06:20:22;2.70;99.90
24632;DHT22;59977;48.782;9.190;2023-03-01T06:22:48;2.70;99.90
24632;DHT22;59977;48.782;9.190;2023-03-01T06:25:17;2.70;99.90
24632;DHT22;59977;48.782;9.190;2023-03-01T06:27:43;2.60;99.90
24632;DHT22;59977;48.782;9.190;2023-03-01T06:30:11;2.50;99.90
24632;DHT22;59977;48.782;9.190;2023-03-01T06:32:37;2.40;99.90
24632;DHT22;59977;48.782;9.190;2023-03-01T06:35:08;4.30;99.90
24632;DHT22;59977;48.782;9.190;2023-03-01T06:37:33;2.50;99.90
24632;DHT22;59977;48.782;9.190;2023-03-01T06:40:01;2.50;99.90
24632;DHT22;59977;48.782;9.190;2023-03-01T06:42:32;2.50;99.90
24632;DHT22;59977;48.782;9.190;2023-03-01T06:44:57;2.60;99.90
24632;DHT22;59977;48.782;9.190;2023-03-01T06:47:23;4.20;99.90
24632;DHT22;59977;48.782;9.190;2023-03-01T06:49:48;2.70;99.90
24632;DHT22;59977;48.782;9.190;2023-03-01T06:52:14;2.60;99.90
24632;DHT22;59977;48.782;9.190;2023-03-01T06:54:39;2.60;99.90
24632;DHT22;59977;48.782;9.190;2023-03-01T06:57:05;2.70;99.90
24632;DHT22;59977;48.782;9.190;2023-03-01T06:59:31;2.70;99.90
24632;DHT22;59977;48.782;9.190;2023-03-01T07:01:56;2.70;99.90
24632;DHT22;59977;48.782;9.190;2023-03-01T07:04:22;2.80;99.90
24632;DHT22;59977;48.782;9.190;2023-03-01T07:06:47;2.70;99.90
24632;DHT22;59977;48.782;9.190;2023-03-01T07:09:19;2.50;99.90
24632;DHT22;59977;48.782;9.190;2023-03-01T07:11:47;2.40;99.90
24632;DHT22;59977;48.782;9.190;2023-03-01T07:14:12;2.40;99.90
24632;DHT22;59977;48.782;9.190;2023-03-01T07:16:38;2.30;99.90
24632;DHT22;59977;48.782;9.190;2023-03-01T07:19:04;2.40;99.90
24632;DHT22;59977;48.782;9.190;2023-03-01T07:21:30;2.30;99.90
24632;DHT22;59977;48.782;9.190;2023-03-01T07:23:56;-0.60;99.90
24632;DHT22;59977;48.782;9.190;2023-03-01T07:26:22;2.20;99.90
24632;DHT22;59977;48.782;9.190;2023-03-01T07:28:47;2.30;99.90
24632;DHT22;59977;48.782;9.190;2023-03-01T07:31:13;2.30;99.90
24632;DHT22;59977;48.782;9.190;2023-03-01T07:33:39;2.20;99.90
24632;DHT22;59977;48.782;9.190;2023-03-01T07:36:05;2.20;99.90
24632;DHT22;59977;48.782;9.190;2023-03-01T07:38:31;2.20;99.90
24632;DHT22;59977;48.782;9.190;2023-03-01T07:41:01;2.20;99.90
24632;DHT22;59977;48.782;9.190;2023-03-01T07:43:28;2.20;99.90
24632;DHT22;59977;48.782;9.190;2023-03-01T07:45:54;2.20;99.90
24632;DHT22;59977;48.782;9.190;2023-03-01T07:48:19;2.20;99.90
24632;DHT22;59977;48.782;9.190;2023-03-01T07:50:45;2.20;99.90
24632;DHT22;59977;48.782;9.190;2023-03-01T07:53:10;2.20;99.90
24632;DHT22;59977;48.782;9.190;2023-03-01T07:55:36;2.20;99.90
24632;DHT22;59977;48.782;9.190;2023-03-01T07:58:02;2.30;99.90
24632;DHT22;59977;48.782;9.190;2023-03-01T08:00:28;2.30;99.90
24632;DHT22;59977;48.782;9.190;2023-03-01T08:02:53;2.30;99.90
24632;DHT22;59977;48.782;9.190;2023-03-01T08:05:19;4.90;99.90
24632;DHT22;59977;48.782;9.190;2023-03-01T08:07:44;2.40;99.90
24632;DHT22;59977;48.782;9.190;2023-03-01T08:10:10;2.50;99.90
24632;DHT22;59977;48.782;9.190;2023-03-01T08:12:36;2.50;99.90
24632;DHT22;59977;48.782;9.190;2023-03-01T08:15:02;2.60;99.90
24632;DHT22;59977;48.782;9.190;2023-03-01T08:17:28;2.60;99.90
24632;DHT22;59977;48.782;9.190;2023-03-01T08:19:53;2.70;99.90
24632;DHT22;59977;48.782;9.190;2023-03-01T08:22:19;2.80;99.90
24632;DHT22;59977;48.782;9.190;2023-03-01T08:24:44;2.90;99.90
24632;DHT22;59977;48.782;9.190;2023-03-01T08:27:10;2.90;99.90
24632;DHT22;59977;48.782;9.190;2023-03-01T08:29:37;2.90;99.90
24632;DHT22;59977;48.782;9.190;2023-03-01T08:32:03;2.90;99.90
24632;DHT22;59977;48.782;9.190;2023-03-01T08:34:29;2.90;99.90
24632;DHT22;59977;48.782;9.190;2023-03-01T08:36:56;4.90;99.90
24632;DHT22;59977;48.782;9.190;2023-03-01T08:39:22;4.00;99.90
24632;DHT22;59977;48.782;9.190;2023-03-01T08:41:47;3.00;99.90
24632;DHT22;59977;48.782;9.190;2023-03-01T08:44:14;3.00;99.90
24632;DHT22;59977;48.782;9.190;2023-03-01T08:46:42;2.90;99.90
24632;DHT22;59977;48.782;9.190;2023-03-01T08:49:11;4.40;99.90
24632;DHT22;59977;48.782;9.190;2023-03-01T08:51:37;2.70;99.90
24632;DHT22;59977;48.782;9.190;2023-03-01T08:54:09;2.90;99.90
24632;DHT22;59977;48.782;9.190;2023-03-01T08:56:35;2.70;99.90
24632;DHT22;59977;48.782;9.190;2023-03-01T08:59:01;2.90;99.90
24632;DHT22;59977;48.782;9.190;2023-03-01T09:01:26;3.10;99.90
24632;DHT22;59977;48.782;9.190;2023-03-01T09:03:52;5.20;99.90
24632;DHT22;59977;48.782;9.190;2023-03-01T09:06:18;3.30;99.90
24632;DHT22;59977;48.782;9.190;2023-03-01T09:08:46;3.20;99.90
24632;DHT22;59977;48.782;9.190;2023-03-01T09:11:15;3.50;99.90
24632;DHT22;59977;48.782;9.190;2023-03-01T09:13:42;3.60;99.90
24632;DHT22;59977;48.782;9.190;2023-03-01T09:16:08;3.50;99.90
24632;DHT22;59977;48.782;9.190;2023-03-01T09:18:35;6.00;99.90
24632;DHT22;59977;48.782;9.190;2023-03-01T09:21:12;3.30;99.90
24632;DHT22;59977;48.782;9.190;2023-03-01T09:23:40;3.50;99.90
24632;DHT22;59977;48.782;9.190;2023-03-01T09:26:14;3.60;99.90
24632;DHT22;59977;48.782;9.190;2023-03-01T09:28:42;3.80;99.90
24632;DHT22;59977;48.782;9.190;2023-03-01T09:31:08;3.90;99.90
24632;DHT22;59977;48.782;9.190;2023-03-01T09:33:34;3.80;99.90
24632;DHT22;59977;48.782;9.190;2023-03-01T09:36:05;3.80;99.90
24632;DHT22;59977;48.782;9.190;2023-03-01T09:38:31;4.00;99.90
24632;DHT22;59977;48.782;9.190;2023-03-01T09:40:57;3.90;99.90
24632;DHT22;59977;48.782;9.190;2023-03-01T09:43:43;3.90;99.90
24632;DHT22;59977;48.782;9.190;2023-03-01T09:46:13;4.10;99.90
24632;DHT22;59977;48.782;9.190;2023-03-01T09:48:49;4.10;99.90
24632;DHT22;59977;48.782;9.190;2023-03-01T09:51:34;4.20;99.90
24632;DHT22;59977;48.782;9.190;2023-03-01T09:54:04;4.30;99.90
24632;DHT22;59977;48.782;9.190;2023-03-01T09:56:46;4.50;99.90
24632;DHT22;59977;48.782;9.190;2023-03-01T09:59:25;4.60;99.90
24632;DHT22;59977;48.782;9.190;2023-03-01T10:04:48;4.60;99.90
24632;DHT22;59977;48.782;9.190;2023-03-01T10:08:02;4.70;99.90
24632;DHT22;59977;48.782;9.190;2023-03-01T10:10:44;4.80;99.90
24632;DHT22;59977;48.782;9.190;2023-03-01T10:13:25;5.00;99.90
24632;DHT22;59977;48.782;9.190;2023-03-01T10:16:00;5.20;99.90
24632;DHT22;59977;48.782;9.190;2023-03-01T10:18:29;5.40;99.90
24632;DHT22;59977;48.782;9.190;2023-03-01T10:20:57;5.40;99.90
24632;DHT22;59977;48.782;9.190;2023-03-01T10:23:25;5.40;99.90
24632;DHT22;59977;48.782;9.190;2023-03-01T10:28:35;5.40;99.90
24632;DHT22;59977;48.782;9.190;2023-03-01T10:31:03;5.40;99.90
24632;DHT22;59977;48.782;9.190;2023-03-01T10:33:31;5.40;99.90
24632;DHT22;59977;48.782;9.190;2023-03-01T10:35:58;5.40;99.90
24632;DHT22;59977;48.782;9.190;2023-03-01T10:38:24;5.40;99.90
24632;DHT22;59977;48.782;9.190;2023-03-01T10:41:10;5.60;99.90
24632;DHT22;59977;48.782;9.190;2023-03-01T10:43:53;5.60;99.90
24632;DHT22;59977;48.782;9.190;2023-03-01T10:46:35;5.70;99.90
24632;DHT22;59977;48.782;9.190;2023-03-01T10:49:20;5.70;99.90
24632;DHT22;59977;48.782;9.190;2023-03-01T10:51:48;5.80;99.90
24632;DHT22;59977;48.782;9.190;2023-03-01T10:54:31;5.80;99.90
24632;DHT22;59977;48.782;9.190;2023-03-01T10:56:59;5.80;99.90
24632;DHT22;59977;48.782;9.190;2023-03-01T10:59:34;5.80;99.90
24632;DHT22;59977;48.782;9.190;2023-03-01T11:04:35;6.00;99.90
24632;DHT22;59977;48.782;9.190;2023-03-01T11:07:02;6.50;99.90
24632;DHT22;59977;48.782;9.190;2023-03-01T11:09:32;6.00;99.90
24632;DHT22;59977;48.782;9.190;2023-03-01T11:12:04;5.90;99.90
24632;DHT22;59977;48.782;9.190;2023-03-01T11:14:49;6.00;99.90
24632;DHT22;59977;48.782;9.190;2023-03-01T11:20:23;6.10;99.90
24632;DHT22;59977;48.782;9.190;2023-03-01T11:22:57;6.00;99.90
24632;DHT22;59977;48.782;9.190;2023-03-01T11:25:26;6.00;99.90
24632;DHT22;59977;48.782;9.190;2023-03-01T11:27:54;6.00;99.90
24632;DHT22;59977;48.782;9.190;2023-03-01T11:30:39;6.10;99.90
24632;DHT22;59977;48.782;9.190;2023-03-01T11:33:46;6.20;99.90
24632;DHT22;59977;48.782;9.190;2023-03-01T11:36:35;6.30;99.90
24632;DHT22;59977;48.782;9.190;2023-03-01T11:39:17;6.20;99.90
24632;DHT22;59977;48.782;9.190;2023-03-01T11:41:47;6.10;99.90
24632;DHT22;59977;48.782;9.190;2023-03-01T11:44:21;6.20;99.90
24632;DHT22;59977;48.782;9.190;2023-03-01T11:47:13;6.10;99.90
24632;DHT22;59977;48.782;9.190;2023-03-01T11:52:40;6.20;99.90
24632;DHT22;59977;48.782;9.190;2023-03-01T11:58:40;6.20;99.90
24632;DHT22;59977;48.782;9.190;2023-03-01T12:27:52;6.70;99.60
24632;DHT22;59977;48.782;9.190;2023-03-01T18:30:30;7.00;95.20
24632;DHT22;59977;48.782;9.190;2023-03-01T18:32:57;7.00;95.60
24632;DHT22;59977;48.782;9.190;2023-03-01T18:40:15;6.60;96.80
24632;DHT22;59977;48.782;9.190;2023-03-01T18:45:07;6.60;97.20
24632;DHT22;59977;48.782;9.190;2023-03-01T18:59:43;6.60;98.10
24632;DHT22;59977;48.782;9.190;2023-03-01T19:02:10;6.50;98.30
24632;DHT22;59977;48.782;9.190;2023-03-01T19:04:36;6.50;98.50
24632;DHT22;59977;48.782;9.190;2023-03-01T19:24:07;6.20;99.90
24632;DHT22;59977;48.782;9.190;2023-03-01T19:33:53;6.40;99.60
24632;DHT22;59977;48.782;9.190;2023-03-01T19:38:46;6.40;99.80
24632;DHT22;59977;48.782;9.190;2023-03-01T19:41:15;6.20;99.90
24632;DHT22;59977;48.782;9.190;2023-03-01T19:55:57;6.90;99.90
24632;DHT22;59977;48.782;9.190;2023-03-01T20:22:51;6.20;99.90
24632;DHT22;59977;48.782;9.190;2023-03-01T20:25:17;6.20;99.90
24632;DHT22;59977;48.782;9.190;2023-03-01T20:27:42;6.20;99.90
24632;DHT22;59977;48.782;9.190;2023-03-01T20:30:13;6.20;99.90
24632;DHT22;59977;48.782;9.190;2023-03-01T20:32:39;6.70;99.90
24632;DHT22;59977;48.782;9.190;2023-03-01T20:35:05;6.30;99.90
24632;DHT22;59977;48.782;9.190;2023-03-01T20:37:31;6.30;99.90
24632;DHT22;59977;48.782;9.190;2023-03-01T20:39:56;6.40;99.90
24632;DHT22;59977;48.782;9.190;2023-03-01T20:42:22;6.30;99.90
24632;DHT22;59977;48.782;9.190;2023-03-01T20:44:48;6.30;99.90
24632;DHT22;59977;48.782;9.190;2023-03-01T20:47:13;6.30;99.90
24632;DHT22;59977;48.782;9.190;2023-03-01T20:49:39;6.20;99.90
24632;DHT22;59977;48.782;9.190;2023-03-01T20:52:05;6.10;99.90
24632;DHT22;59977;48.782;9.190;2023-03-01T20:54:31;7.70;99.90
24632;DHT22;59977;48.782;9.190;2023-03-01T20:56:57;7.80;99.90
24632;DHT22;59977;48.782;9.190;2023-03-01T20:59:23;6.10;99.90
24632;DHT22;59977;48.782;9.190;2023-03-01T21:01:49;6.10;99.90
24632;DHT22;59977;48.782;9.190;2023-03-01T21:04:15;6.00;99.90
24632;DHT22;59977;48.782;9.190;2023-03-01T21:06:48;8.00;99.90
24632;DHT22;59977;48.782;9.190;2023-03-01T21:09:14;5.90;99.90
24632;DHT22;59977;48.782;9.190;2023-03-01T21:11:39;5.90;99.90
24632;DHT22;59977;48.782;9.190;2023-03-01T21:14:05;6.00;99.90
24632;DHT22;59977;48.782;9.190;2023-03-01T21:16:31;6.70;99.90
24632;DHT22;59977;48.782;9.190;2023-03-01T21:19:01;5.90;99.90
24632;DHT22;59977;48.782;9.190;2023-03-01T21:21:27;8.00;99.90
24632;DHT22;59977;48.782;9.190;2023-03-01T21:23:54;9.00;99.90
24632;DHT22;59977;48.782;9.190;2023-03-01T21:26:24;7.10;99.90
24632;DHT22;59977;48.782;9.190;2023-03-01T21:28:57;5.80;99.90
24632;DHT22;59977;48.782;9.190;2023-03-01T21:31:26;5.80;99.90
24632;DHT22;59977;48.782;9.190;2023-03-01T21:33:57;5.80;99.90
24632;DHT22;59977;48.782;9.190;2023-03-01T21:36:24;5.80;99.90
24632;DHT22;59977;48.782;9.190;2023-03-01T21:38:51;5.80;99.90
24632;DHT22;59977;48.782;9.190;2023-03-01T21:41:20;6.00;99.90
24632;DHT22;59977;48.782;9.190;2023-03-01T21:43:48;5.80;99.90
24632;DHT22;59977;48.782;9.190;2023-03-01T21:46:16;5.70;99.90
24632;DHT22;59977;48.782;9.190;2023-03-01T21:48:43;6.40;99.90
24632;DHT22;59977;48.782;9.190;2023-03-01T21:51:11;5.70;99.90
24632;DHT22;59977;48.782;9.190;2023-03-01T21:53:37;6.60;99.90
24632;DHT22;59977;48.782;9.190;2023-03-01T21:56:04;5.70;99.90
24632;DHT22;59977;48.782;9.190;2023-03-01T21:58:30;5.70;99.90
24632;DHT22;59977;48.782;9.190;2023-03-01T22:00:57;5.70;99.90
24632;DHT22;59977;48.782;9.190;2023-03-01T22:03:23;5.60;99.90
24632;DHT22;59977;48.782;9.190;2023-03-01T22:05:57;5.60;99.90
24632;DHT22;59977;48.782;9.190;2023-03-01T22:08:23;5.70;99.90
24632;DHT22;59977;48.782;9.190;2023-03-01T22:10:49;5.60;99.90
24632;DHT22;59977;48.782;9.190;2023-03-01T22:13:15;5.60;99.90
24632;DHT22;59977;48.782;9.190;2023-03-01T22:15:41;5.60;99.90
24632;DHT22;59977;48.782;9.190;2023-03-01T22:18:08;5.50;99.90
24632;DHT22;59977;48.782;9.190;2023-03-01T22:20:34;8.10;99.90
24632;DHT22;59977;48.782;9.190;2023-03-01T22:23:00;6.30;99.90
24632;DHT22;59977;48.782;9.190;2023-03-01T22:25:26;5.50;99.90
24632;DHT22;59977;48.782;9.190;2023-03-01T22:27:51;5.50;99.90
24632;DHT22;59977;48.782;9.190;2023-03-01T22:30:17;6.40;99.90
24632;DHT22;59977;48.782;9.190;2023-03-01T22:32:43;5.40;99.90
24632;DHT22;59977;48.782;9.190;2023-03-01T22:35:10;5.40;99.90
24632;DHT22;59977;48.782;9.190;2023-03-01T22:37:36;5.40;99.90
24632;DHT22;59977;48.782;9.190;2023-03-01T22:40:02;5.40;99.90
24632;DHT22;59977;48.782;9.190;2023-03-01T22:44:55;5.40;99.90
24632;DHT22;59977;48.782;9.190;2023-03-01T22:49:46;5.20;99.90
24632;DHT22;59977;48.782;9.190;2023-03-01T23:38:46;5.10;99.90
